Hoquiam, WA

8:10 PM PDT on October 01, 2014 (GMT -0700)
Sumner & Myrtle, Aberdeen | Change Station
CLOSE
Current Station
Personal Weather Station
Location: Hoquiam, WA
Elevation: 7 ft
Nearby Weather Stations

Elev 7 ft 46.98 °N, 123.85 °W | Updated 10 seconds ago

Clear
Clear
56.2 °F
Feels Like 56.2 °F
N
4.7
Wind Variable Wind from WNW
Gusts 6.0 mph

Today
High -- | Low -- °F
--% Chance of Precip.
Yesterday
High -- | Low -- °F
Precip. -- in
7:14 AM 6:54 PM
First Quarter, 54% visible
Pressure 30.20 in
Visibility 8.0 miles
Clouds Clear
Dew Point 50 °F
Humidity 79%
Rainfall 0.00 in
Snow Depth 0 in , 1 in , 0 in
UV 0 out of 12
Pollen 1.20 out of 12
Air Quality Not available.
Flu Activity Not available.
METAR KHQM 020253Z AUTO 28006KT 8SM CLR 15/11 A3019 RMK AO2 SLP227 T01500106 58002

More Conditions Fewer Conditions

Pressure 30.20 in
Visibility 8.0 miles
Clouds Clear
Dew Point 50 °F
Humidity 79%
Rainfall 0.00 in
Snow Depth 0 in , 1 in , 0 in
UV 0 out of 12
Pollen 1.20 out of 12
Air Quality Not available.
Flu Activity Not available.
METAR KHQM 020253Z AUTO 28006KT 8SM CLR 15/11 A3019 RMK AO2 SLP227 T01500106 58002

More Conditions Fewer Conditions

10-Day Weather Forecast

Almanac

Astronomy

Oct. 01, 2014 Rise Set
Actual Time 7:14 AM PDT 6:54 PM PDT
Civil Twilight 6:44 AM PDT 7:25 PM PDT
Nautical Twilight 6:08 AM PDT 8:00 PM PDT
Astronomical Twilight 5:32 AM PDT 8:36 PM PDT
Moon 2:36 PM PDT (10/1) No Moon Set
Length of Visible Light 12h 41m
Length of Day
11h 40m
Tomorrow will be 3m 19s shorter.
First Quarter, 54% of the Moon is Illuminated
Today
First Quarter
Oct 8
Full
Oct 15
Last Quarter
Oct 23
New
Oct 30
First Quarter

Today's Extremes

State Highs State Lows

Community

WunderPhotos

Upload Photos

1,758,157 photos uploaded!

WunderBlogs® & News

Nearby

Air Quality

  Air Quality AQ Index Pollutant
Yesterday Good
PM2.5

Snow Depth

Station Depth Elevation
Bunchgrass Meadow 0 in 5000 ft
Quartz Peak 1 in 4700 ft
Sentinel Butte 0 in 4920 ft
Wells Creek 0 in 4200 ft
Stevens Pass 0 in 4070 ft

Earthquake Activity

City Distance Mag. Time & Date
No recent earthquake activity has been reported nearby.
Minimum magnitude displayed is 2.5.

Coastal Water Temperatures

Place Temperature
Westport, WA 60.1 °F
Tacoma, WA 55.0 °F
Seattle, WA 55.9 °F
Astoria, OR 64.9 °F

Nearby Weather Stations